Time;durP1;ratioP1;P1;durP2;ratioP2;P2;SDS_P1;SDS_P2;PMS_P1;PMS_P2;Temp;Humidity;BMP_temperature;BMP_pressure;BME280_temperature;BME280_humidity;BME280_pressure;Samples;Min_cycle;Max_cycle;Signal;HPM_P1;HPM_P2
2021/01/28 00:07:03;;;;;;;33.17;14.82;;;1.00;99.90;;;;;;20752367;28;19936;-80
2021/01/28 00:17:04;;;;;;;31.05;15.32;;;0.90;99.90;;;;;;20754038;28;20551;-80
2021/01/28 00:27:04;;;;;;;;;;;0.90;99.90;;;;;;20740094;28;20057;-79
2021/01/28 00:37:05;;;;;;;38.72;17.70;;;0.90;99.90;;;;;;20738209;28;19924;-80
2021/01/28 00:47:06;;;;;;;;;;;1.00;99.90;;;;;;20719306;28;20041;-79
2021/01/28 00:57:07;;;;;;;34.20;15.53;;;1.00;99.90;;;;;;20751315;28;19917;-80
2021/01/28 01:07:08;;;;;;;41.17;16.73;;;1.10;99.90;;;;;;20752672;28;20280;-78
2021/01/28 01:17:09;;;;;;;;;;;1.00;99.90;;;;;;20778692;28;20042;-80
2021/01/28 01:27:13;;;;;;;39.58;16.55;;;0.90;99.90;;;;;;20808196;28;19989;-79
2021/01/28 01:37:14;;;;;;;39.95;16.35;;;0.90;99.90;;;;;;20836050;28;20057;-80
2021/01/28 01:47:41;;;;;;;40.00;15.77;;;0.90;99.90;;;;;;20845429;28;20036;-81
2021/01/28 01:57:43;;;;;;;;;;;0.90;99.90;;;;;;20833752;28;20043;-79
2021/01/28 02:07:50;;;;;;;33.40;13.85;;;1.00;99.90;;;;;;20828983;28;19975;-79
2021/01/28 02:18:15;;;;;;;26.80;12.73;;;1.00;99.90;;;;;;20830933;28;20045;-80
2021/01/28 02:28:32;;;;;;;26.40;11.68;;;1.10;99.90;;;;;;20815541;28;20671;-81
2021/01/28 02:38:36;;;;;;;37.55;14.30;;;1.00;99.90;;;;;;20828953;28;20033;-81
2021/01/28 02:48:42;;;;;;;37.67;15.50;;;1.00;99.90;;;;;;20815203;28;20044;-78
2021/01/28 02:58:52;;;;;;;33.15;13.88;;;1.00;99.90;;;;;;20804294;28;20630;-79
2021/01/28 03:08:55;;;;;;;34.75;13.77;;;1.10;99.90;;;;;;20805109;28;20072;-80
2021/01/28 03:19:12;;;;;;;28.95;12.75;;;1.20;99.90;;;;;;20823205;28;20036;-79
2021/01/28 03:29:14;;;;;;;30.33;11.90;;;1.20;99.90;;;;;;20807522;28;20035;-80
2021/01/28 03:39:16;;;;;;;29.50;13.77;;;1.20;99.90;;;;;;20818683;28;20038;-78
2021/01/28 03:49:17;;;;;;;28.30;12.32;;;1.30;99.90;;;;;;20816848;28;20037;-79
2021/01/28 03:59:30;;;;;;;28.15;12.50;;;1.30;99.90;;;;;;20837379;28;20439;-80
2021/01/28 04:09:51;;;;;;;32.37;12.43;;;1.30;99.90;;;;;;20823800;28;20124;-80
2021/01/28 04:19:58;;;;;;;30.70;12.57;;;1.20;99.90;;;;;;20820180;28;20036;-78
2021/01/28 04:30:00;;;;;;;;;;;1.20;99.90;;;;;;20821445;28;20037;-78
2021/01/28 04:40:34;;;;;;;20.25;9.35;;;1.30;99.90;;;;;;20820330;28;20617;-81
2021/01/28 04:50:42;;;;;;;21.00;9.55;;;1.30;99.90;;;;;;20827358;28;20077;-79
2021/01/28 05:01:01;;;;;;;20.23;9.48;;;1.40;99.90;;;;;;20825539;28;20038;-80
2021/01/28 05:11:34;;;;;;;24.85;10.68;;;1.40;99.90;;;;;;20835220;28;20072;-79
2021/01/28 05:22:22;;;;;;;21.35;8.88;;;1.40;99.90;;;;;;20834889;28;20100;-77
2021/01/28 05:32:50;;;;;;;18.38;8.07;;;1.40;99.90;;;;;;20833018;28;20030;-78
2021/01/28 05:43:32;;;;;;;14.52;6.00;;;1.60;99.90;;;;;;20820781;28;20034;-78
2021/01/28 05:54:05;;;;;;;11.83;6.07;;;1.60;99.90;;;;;;20840384;28;20033;-77
2021/01/28 06:04:32;;;;;;;14.15;7.28;;;1.80;99.90;;;;;;20838511;28;20033;-77
2021/01/28 06:15:05;;;;;;;13.57;6.78;;;1.70;99.90;;;;;;20795804;28;20034;-77
2021/01/28 06:25:29;;;;;;;10.18;5.13;;;1.80;99.90;;;;;;20785770;28;20087;-77
2021/01/28 06:36:10;;;;;;;15.35;6.80;;;1.60;99.90;;;;;;20836618;28;20461;-78
2021/01/28 06:46:36;;;;;;;19.75;7.90;;;1.70;99.90;;;;;;20864129;28;20120;-79
2021/01/28 06:57:17;;;;;;;5.85;3.58;;;1.90;99.90;;;;;;20856813;28;20029;-79
2021/01/28 07:07:47;;;;;;;19.95;7.70;;;1.90;99.90;;;;;;20862529;28;20091;-80
2021/01/28 07:18:24;;;;;;;15.68;7.50;;;1.90;99.90;;;;;;20857557;28;20039;-79
2021/01/28 07:28:28;;;;;;;8.60;4.38;;;1.80;99.90;;;;;;20850370;28;20056;-78
2021/01/28 07:38:32;;;;;;;9.73;4.88;;;1.80;99.90;;;;;;20851446;28;20441;-80
2021/01/28 07:49:15;;;;;;;7.93;3.67;;;1.80;99.90;;;;;;20848462;28;20151;-79
2021/01/28 07:59:49;;;;;;;7.45;3.83;;;1.80;99.90;;;;;;20849034;28;20044;-78
2021/01/28 08:09:53;;;;;;;4.27;2.57;;;1.80;99.90;;;;;;20845951;28;20029;-78
2021/01/28 08:20:19;;;;;;;8.43;3.83;;;1.80;99.90;;;;;;20829562;28;20396;-77
2021/01/28 08:30:26;;;;;;;7.70;3.50;;;1.90;99.90;;;;;;20776000;28;20080;-78
2021/01/28 08:40:27;;;;;;;4.50;2.72;;;1.90;99.90;;;;;;20751883;28;20053;-77
2021/01/28 08:50:29;;;;;;;4.57;2.58;;;1.90;99.90;;;;;;20743492;28;20037;-76
2021/01/28 09:00:30;;;;;;;5.78;3.80;;;2.00;99.90;;;;;;20742031;28;20038;-77
2021/01/28 09:10:40;;;;;;;3.55;2.38;;;2.10;99.90;;;;;;20741737;28;20501;-76
2021/01/28 09:20:42;;;;;;;5.25;3.20;;;2.10;99.90;;;;;;20740006;28;20523;-75
2021/01/28 09:30:52;;;;;;;3.45;1.90;;;2.20;99.90;;;;;;20741086;28;20104;-76
2021/01/28 09:41:17;;;;;;;5.75;2.50;;;2.30;99.90;;;;;;20750556;28;20038;-76
2021/01/28 09:51:36;;;;;;;14.70;3.28;;;2.50;99.90;;;;;;20754969;28;20030;-76
2021/01/28 10:01:37;;;;;;;18.13;4.80;;;2.40;99.90;;;;;;20753445;28;20034;-76
2021/01/28 10:11:39;;;;;;;43.95;19.60;;;2.40;99.90;;;;;;20752575;28;20022;-76
2021/01/28 10:21:41;;;;;;;17.17;6.50;;;2.50;99.90;;;;;;20753902;28;20373;-77
2021/01/28 10:31:42;;;;;;;19.42;10.45;;;2.30;99.90;;;;;;20764377;28;20045;-77
2021/01/28 10:41:47;;;;;;;14.32;7.88;;;2.50;99.90;;;;;;20831150;28;20029;-77
2021/01/28 10:51:49;;;;;;;8.20;5.22;;;2.70;99.90;;;;;;20831527;28;20403;-77
2021/01/28 11:01:50;;;;;;;8.13;3.90;;;2.60;99.90;;;;;;20830831;28;20041;-76
2021/01/28 11:11:51;;;;;;;7.00;4.30;;;2.60;99.90;;;;;;20833082;28;20040;-77
2021/01/28 11:21:51;;;;;;;10.63;4.47;;;2.80;99.90;;;;;;20828576;28;20037;-77
2021/01/28 11:31:53;;;;;;;81.37;7.23;;;2.90;99.90;;;;;;20826712;28;20495;-76
2021/01/28 11:41:54;;;;;;;16.73;5.07;;;3.00;99.90;;;;;;20830273;28;20306;-77
2021/01/28 11:51:55;;;;;;;36.37;8.63;;;3.30;99.90;;;;;;20834003;28;20029;-76
2021/01/28 12:01:56;;;;;;;38.13;8.93;;;3.70;99.90;;;;;;20841507;28;20038;-77
2021/01/28 12:11:57;;;;;;;438.80;20.87;;;3.70;99.90;;;;;;20834652;28;20476;-76
2021/01/28 12:21:57;;;;;;;11.03;6.03;;;3.40;99.90;;;;;;20781713;28;20026;-77
2021/01/28 12:31:59;;;;;;;10.60;5.47;;;3.70;99.90;;;;;;20725219;28;20132;-77
2021/01/28 12:42:01;;;;;;;9.27;5.70;;;4.70;99.90;;;;;;20724674;28;20041;-76
2021/01/28 12:52:02;;;;;;;8.43;4.82;;;5.60;99.90;;;;;;20737111;28;20033;-75
2021/01/28 13:02:03;;;;;;;8.73;3.47;;;5.60;99.90;;;;;;20805634;28;20047;-76
2021/01/28 13:12:05;;;;;;;3.47;2.30;;;6.40;99.90;;;;;;20811986;28;20490;-76
2021/01/28 13:22:06;;;;;;;12.98;8.10;;;7.10;99.90;;;;;;20823491;28;20526;-76
2021/01/28 13:32:06;;;;;;;3.80;1.87;;;6.50;99.90;;;;;;20819831;28;20112;-75
2021/01/28 13:42:07;;;;;;;1.20;0.40;;;7.20;99.90;;;;;;20819721;28;20086;-76
2021/01/28 13:52:08;;;;;;;1.40;1.20;;;8.70;99.90;;;;;;20818829;28;20112;-77
2021/01/28 14:02:09;;;;;;;1.57;0.40;;;7.70;99.90;;;;;;20817824;28;20046;-77
2021/01/28 14:12:10;;;;;;;0.23;0.20;;;8.60;99.90;;;;;;20817152;28;20145;-79
2021/01/28 14:22:11;;;;;;;0.93;0.40;;;9.00;99.90;;;;;;20814425;28;20517;-78
2021/01/28 14:32:12;;;;;;;2.87;1.30;;;9.10;99.90;;;;;;20815129;28;20176;-80
2021/01/28 14:42:13;;;;;;;0.40;0.40;;;9.10;99.90;;;;;;20809055;28;20041;-76
2021/01/28 14:52:14;;;;;;;0.33;0.33;;;9.20;99.90;;;;;;20816731;28;20486;-77
2021/01/28 15:02:15;;;;;;;0.40;0.40;;;9.20;99.90;;;;;;20815292;28;20806;-78
2021/01/28 15:12:16;;;;;;;0.47;0.10;;;9.80;99.90;;;;;;20813403;28;20033;-79
2021/01/28 15:22:17;;;;;;;0.73;0.40;;;9.70;99.90;;;;;;20814296;28;20034;-77
2021/01/28 15:32:18;;;;;;;0.73;0.30;;;9.80;99.90;;;;;;20808431;28;20045;-78
2021/01/28 15:42:19;;;;;;;0.30;0.30;;;9.80;99.90;;;;;;20808566;28;20025;-78
2021/01/28 15:52:20;;;;;;;1.00;0.33;;;9.80;99.90;;;;;;20810249;28;20039;-77
2021/01/28 16:02:21;;;;;;;0.73;0.30;;;9.40;99.90;;;;;;20809923;28;20033;-77
2021/01/28 16:12:21;;;;;;;1.93;0.43;;;9.30;99.90;;;;;;20807792;28;20061;-78
2021/01/28 16:22:26;;;;;;;0.60;0.40;;;9.60;99.90;;;;;;20806425;28;20053;-78
2021/01/28 16:32:27;;;;;;;0.32;0.30;;;9.50;99.90;;;;;;20808081;28;20105;-79
2021/01/28 16:42:28;;;;;;;1.00;0.40;;;9.80;99.90;;;;;;20807086;28;20112;-81
2021/01/28 16:52:29;;;;;;;0.57;0.37;;;9.90;99.90;;;;;;20823728;28;20108;-78
2021/01/28 17:02:30;;;;;;;0.47;0.20;;;10.10;99.90;;;;;;20837879;28;20040;-78
2021/01/28 17:12:31;;;;;;;0.30;0.27;;;10.30;99.90;;;;;;20842678;28;20033;-76
2021/01/28 17:22:32;;;;;;;0.47;0.20;;;10.40;99.90;;;;;;20831305;28;20037;-77
2021/01/28 17:32:33;;;;;;;0.25;0.25;;;10.20;99.90;;;;;;20777349;28;20042;-76
2021/01/28 17:42:34;;;;;;;0.40;0.20;;;10.30;99.90;;;;;;20812817;28;20418;-77
2021/01/28 17:52:35;;;;;;;1.13;0.40;;;10.20;99.90;;;;;;20830261;28;20052;-76
2021/01/28 18:02:36;;;;;;;0.53;0.30;;;10.00;99.90;;;;;;20852725;28;20030;-76
2021/01/28 18:12:37;;;;;;;0.30;0.20;;;9.90;99.90;;;;;;20820795;28;20454;-77
2021/01/28 18:22:38;;;;;;;1.33;0.50;;;10.20;99.90;;;;;;20823424;28;20041;-76
2021/01/28 18:32:39;;;;;;;0.13;0.13;;;10.20;99.90;;;;;;20828209;28;20041;-77
2021/01/28 18:42:41;;;;;;;0.37;0.30;;;10.30;99.90;;;;;;20826391;28;20034;-77
2021/01/28 18:52:42;;;;;;;0.25;0.25;;;10.20;99.90;;;;;;20826626;28;20082;-76
2021/01/28 19:02:43;;;;;;;1.13;0.30;;;9.90;99.90;;;;;;20814528;28;20041;-77
2021/01/28 19:12:44;;;;;;;1.63;0.60;;;9.70;99.90;;;;;;20815187;28;20037;-77
2021/01/28 19:22:45;;;;;;;0.57;0.50;;;9.50;99.90;;;;;;20810466;28;20033;-77
2021/01/28 19:32:47;;;;;;;1.65;0.60;;;9.20;99.90;;;;;;20807896;28;20111;-78
2021/01/28 19:42:48;;;;;;;1.00;0.77;;;9.30;99.90;;;;;;20806524;28;20086;-78
2021/01/28 19:52:49;;;;;;;4.03;0.80;;;9.20;99.90;;;;;;20807662;28;20026;-78
2021/01/28 20:02:51;;;;;;;3.27;0.93;;;9.10;99.90;;;;;;20807147;28;20025;-78
2021/01/28 20:12:52;;;;;;;1.52;0.70;;;9.20;99.90;;;;;;20805190;28;20037;-77
2021/01/28 20:22:53;;;;;;;1.70;0.70;;;9.20;99.90;;;;;;20804544;28;20155;-78
2021/01/28 20:32:55;;;;;;;0.87;0.60;;;9.30;99.90;;;;;;20806836;28;20038;-77
2021/01/28 20:42:57;;;;;;;0.77;0.60;;;9.20;99.90;;;;;;20805408;28;20115;-77
2021/01/28 20:52:57;;;;;;;2.08;1.40;;;9.10;99.90;;;;;;20805546;28;20287;-78
2021/01/28 21:03:00;;;;;;;5.07;2.57;;;9.30;99.90;;;;;;20808009;28;20029;-76
2021/01/28 21:13:02;;;;;;;4.82;1.63;;;9.00;99.90;;;;;;20797781;28;20045;-78
2021/01/28 21:23:03;;;;;;;2.57;1.73;;;8.90;99.90;;;;;;20801991;28;20034;-79
2021/01/28 21:33:07;;;;;;;5.93;3.50;;;8.80;99.90;;;;;;20811913;28;20650;-78
2021/01/28 21:43:08;;;;;;;2.10;1.30;;;8.90;99.90;;;;;;20816831;28;20117;-78
2021/01/28 21:53:09;;;;;;;2.93;1.90;;;9.10;99.90;;;;;;20811307;28;20036;-78
2021/01/28 22:03:10;;;;;;;1.97;1.30;;;9.00;99.90;;;;;;20820109;28;20249;-78
2021/01/28 22:13:11;;;;;;;2.87;1.53;;;8.90;99.90;;;;;;20818704;28;20812;-77
2021/01/28 22:23:12;;;;;;;0.63;0.63;;;9.20;99.90;;;;;;20815281;28;20024;-79
2021/01/28 22:33:15;;;;;;;1.40;0.90;;;9.40;99.90;;;;;;20811018;28;20022;-78
2021/01/28 22:43:19;;;;;;;0.73;0.65;;;9.20;99.90;;;;;;20812082;28;20453;-78
2021/01/28 22:53:20;;;;;;;1.23;0.50;;;9.20;99.90;;;;;;20794269;28;20029;-78
2021/01/28 23:03:29;;;;;;;1.53;0.67;;;9.20;99.90;;;;;;20810466;28;20057;-77
2021/01/28 23:13:33;;;;;;;0.93;0.40;;;9.20;99.90;;;;;;20808249;28;20041;-77
2021/01/28 23:23:37;;;;;;;5.15;2.22;;;9.20;99.90;;;;;;20810669;28;20029;-77
2021/01/28 23:33:42;;;;;;;1.55;0.88;;;9.00;99.90;;;;;;20784824;28;20089;-77
2021/01/28 23:43:43;;;;;;;3.38;1.67;;;9.00;99.90;;;;;;20794779;28;20145;-78
2021/01/28 23:53:47;;;;;;;3.37;2.13;;;8.70;99.90;;;;;;20821644;28;20033;-78
